createdAt,value
2017-03-31T00:00:43.433Z,1011.27
2017-03-31T00:01:43.420Z,1011.2
2017-03-31T00:02:43.409Z,1011.21
2017-03-31T00:03:43.398Z,1011.2
2017-03-31T00:04:43.384Z,1011.2
2017-03-31T00:05:43.371Z,1011.17
2017-03-31T00:06:43.360Z,1011.16
2017-03-31T00:07:43.347Z,1011.14
2017-03-31T00:08:43.334Z,1011.17
2017-03-31T00:09:43.322Z,1011.13
2017-03-31T00:10:43.311Z,1011.15
2017-03-31T00:11:43.296Z,1011.11
2017-03-31T00:12:43.290Z,1011.12
2017-03-31T00:13:43.272Z,1011.11
2017-03-31T00:14:43.259Z,1011.11
2017-03-31T00:15:43.247Z,1011.09
2017-03-31T00:16:43.233Z,1011.06
2017-03-31T00:17:43.221Z,1011.03
2017-03-31T00:18:43.209Z,1011.04
2017-03-31T00:19:43.199Z,1010.98
2017-03-31T00:20:43.187Z,1010.99
2017-03-31T00:21:43.171Z,1010.95
2017-03-31T00:22:43.159Z,1010.95
2017-03-31T00:23:43.145Z,1010.95
2017-03-31T00:24:43.137Z,1010.93
2017-03-31T00:25:43.124Z,1010.92
2017-03-31T00:26:43.109Z,1010.93
2017-03-31T00:27:43.095Z,1010.93
2017-03-31T00:28:43.084Z,1010.89
2017-03-31T00:29:43.070Z,1010.88
2017-03-31T00:30:43.110Z,1010.86
2017-03-31T00:31:43.042Z,1010.84
2017-03-31T00:32:43.032Z,1010.84
2017-03-31T00:33:43.026Z,1010.82
2017-03-31T00:34:43.006Z,1010.78
2017-03-31T00:35:42.994Z,1010.75
2017-03-31T00:36:42.980Z,1010.73
2017-03-31T00:37:42.968Z,1010.68
2017-03-31T00:38:42.955Z,1010.73
2017-03-31T00:39:42.944Z,1010.7
2017-03-31T00:40:43.133Z,1010.7
2017-03-31T00:41:43.121Z,1010.64
2017-03-31T00:42:42.904Z,1010.61
2017-03-31T00:43:42.892Z,1010.64
2017-03-31T00:44:42.878Z,1010.64
2017-03-31T00:45:42.865Z,1010.58
2017-03-31T00:46:42.853Z,1010.61
2017-03-31T00:47:42.842Z,1010.63
2017-03-31T00:48:42.828Z,1010.59
2017-03-31T00:49:42.816Z,1010.59
2017-03-31T00:50:42.801Z,1010.56
2017-03-31T00:51:42.789Z,1010.55
2017-03-31T00:52:42.778Z,1010.57
2017-03-31T00:53:42.764Z,1010.55
2017-03-31T00:54:42.750Z,1010.51
2017-03-31T00:55:42.737Z,1010.48
2017-03-31T00:56:42.726Z,1010.46
2017-03-31T00:57:42.712Z,1010.47
2017-03-31T00:58:42.699Z,1010.46
2017-03-31T00:59:42.687Z,1010.4
2017-03-31T01:00:42.674Z,1010.39
2017-03-31T01:01:42.660Z,1010.42
2017-03-31T01:02:42.647Z,1010.39
2017-03-31T01:03:42.635Z,1010.37
2017-03-31T01:04:42.626Z,1010.36
2017-03-31T01:05:42.613Z,1010.37
2017-03-31T01:06:42.598Z,1010.34
2017-03-31T01:07:42.585Z,1010.3
2017-03-31T01:08:42.573Z,1010.29
2017-03-31T01:09:42.557Z,1010.27
2017-03-31T01:10:42.546Z,1010.3
2017-03-31T01:11:42.534Z,1010.3
2017-03-31T01:12:42.521Z,1010.23
2017-03-31T01:13:42.506Z,1010.23
2017-03-31T01:14:42.495Z,1010.22
2017-03-31T01:15:42.481Z,1010.17
2017-03-31T01:16:42.468Z,1010.14
2017-03-31T01:17:42.455Z,1010.14
2017-03-31T01:18:42.446Z,1010.16
2017-03-31T01:19:42.432Z,1010.1
2017-03-31T01:20:42.417Z,1010.07
2017-03-31T01:21:42.405Z,1010.07
2017-03-31T01:22:42.394Z,1010.01
2017-03-31T01:23:42.378Z,1010.01
2017-03-31T01:24:42.364Z,1010.01
2017-03-31T01:25:42.354Z,1009.95
2017-03-31T01:26:42.340Z,1009.95
2017-03-31T01:27:42.328Z,1009.91
2017-03-31T01:28:42.315Z,1009.93
2017-03-31T01:29:42.300Z,1009.92
2017-03-31T01:30:42.288Z,1009.93
2017-03-31T01:31:42.273Z,1009.89
2017-03-31T01:32:42.262Z,1009.89
2017-03-31T01:33:42.251Z,1009.91
2017-03-31T01:34:42.236Z,1009.87
2017-03-31T01:35:42.222Z,1009.83
2017-03-31T01:36:42.209Z,1009.82
2017-03-31T01:37:42.197Z,1009.78
2017-03-31T01:38:42.184Z,1009.77
2017-03-31T01:39:42.169Z,1009.75
2017-03-31T01:40:42.158Z,1009.76
2017-03-31T01:41:42.145Z,1009.75
2017-03-31T01:42:42.131Z,1009.75
2017-03-31T01:43:42.120Z,1009.71
2017-03-31T01:44:42.107Z,1009.69
2017-03-31T01:45:42.094Z,1009.69
2017-03-31T01:46:42.080Z,1009.72
2017-03-31T01:47:42.066Z,1009.7
2017-03-31T01:48:42.053Z,1009.68
2017-03-31T01:49:42.040Z,1009.68
2017-03-31T01:50:42.030Z,1009.64
2017-03-31T01:51:42.027Z,1009.63
2017-03-31T01:52:42.007Z,1009.61
2017-03-31T01:53:41.989Z,1009.57
2017-03-31T01:54:41.977Z,1009.58
2017-03-31T01:55:41.963Z,1009.57
2017-03-31T01:56:41.949Z,1009.53
2017-03-31T01:57:41.935Z,1009.51
2017-03-31T01:58:41.924Z,1009.51
2017-03-31T01:59:41.910Z,1009.48
2017-03-31T02:00:41.899Z,1009.45
2017-03-31T02:01:41.883Z,1009.46
2017-03-31T02:02:41.870Z,1009.43
2017-03-31T02:03:41.860Z,1009.43
2017-03-31T02:04:41.845Z,1009.36
2017-03-31T02:05:41.831Z,1009.4
2017-03-31T02:06:41.821Z,1009.37
2017-03-31T02:07:41.806Z,1009.34
2017-03-31T02:08:41.791Z,1009.39
2017-03-31T02:09:41.779Z,1009.41
2017-03-31T02:10:41.767Z,1009.35
2017-03-31T02:11:41.755Z,1009.35
2017-03-31T02:12:41.741Z,1009.34
2017-03-31T02:13:41.727Z,1009.3
2017-03-31T02:14:41.714Z,1009.3
2017-03-31T02:15:41.701Z,1009.33
2017-03-31T02:16:41.688Z,1009.33
2017-03-31T02:17:41.674Z,1009.29
2017-03-31T02:18:41.661Z,1009.28
2017-03-31T02:19:41.646Z,1009.23
2017-03-31T02:20:41.635Z,1009.23
2017-03-31T02:21:41.622Z,1009.22
2017-03-31T02:22:41.608Z,1009.22
2017-03-31T02:23:41.596Z,1009.2
2017-03-31T02:24:41.583Z,1009.19
2017-03-31T02:25:41.572Z,1009.14
2017-03-31T02:26:41.559Z,1009.19
2017-03-31T02:27:41.542Z,1009.14
2017-03-31T02:28:41.531Z,1009.14
2017-03-31T02:29:41.519Z,1009.1
2017-03-31T02:30:41.556Z,1009.09
2017-03-31T02:31:41.493Z,1009.11
2017-03-31T02:32:41.477Z,1009.02
2017-03-31T02:33:41.463Z,1009.04
2017-03-31T02:34:41.449Z,1009.05
2017-03-31T02:35:41.438Z,1009.04
2017-03-31T02:36:41.424Z,1008.99
2017-03-31T02:37:41.409Z,1009.01
2017-03-31T02:38:41.398Z,1008.98
2017-03-31T02:39:41.384Z,1008.99
2017-03-31T02:40:41.574Z,1009.01
2017-03-31T02:41:41.359Z,1008.96
2017-03-31T02:42:41.344Z,1008.93
2017-03-31T02:43:41.329Z,1008.92
2017-03-31T02:44:41.317Z,1008.92
2017-03-31T02:45:41.304Z,1008.92
2017-03-31T02:46:41.291Z,1008.93
2017-03-31T02:47:41.277Z,1008.86
2017-03-31T02:48:41.262Z,1008.82
2017-03-31T02:49:41.249Z,1008.84
2017-03-31T02:50:41.239Z,1008.83
2017-03-31T02:51:41.225Z,1008.83
2017-03-31T02:52:41.208Z,1008.81
2017-03-31T02:53:41.195Z,1008.79
2017-03-31T02:54:41.186Z,1008.77
2017-03-31T02:55:41.170Z,1008.74
2017-03-31T02:56:41.155Z,1008.74
2017-03-31T02:57:41.143Z,1008.73
2017-03-31T02:58:41.132Z,1008.75
2017-03-31T02:59:41.115Z,1008.7
2017-03-31T03:00:41.101Z,1008.69
2017-03-31T03:01:41.140Z,1008.67
2017-03-31T03:02:41.075Z,1008.67
2017-03-31T03:03:41.059Z,1008.62
2017-03-31T03:04:41.045Z,1008.66
2017-03-31T03:05:41.033Z,1008.64
2017-03-31T03:06:41.024Z,1008.61
2017-03-31T03:07:41.005Z,1008.6
2017-03-31T03:08:40.992Z,1008.58
2017-03-31T03:09:40.980Z,1008.58
2017-03-31T03:10:41.014Z,1008.58
2017-03-31T03:11:40.952Z,1008.54
2017-03-31T03:12:40.938Z,1008.56
2017-03-31T03:13:40.925Z,1008.5
2017-03-31T03:14:40.910Z,1008.52
2017-03-31T03:15:40.898Z,1008.47
2017-03-31T03:16:40.884Z,1008.44
2017-03-31T03:17:40.871Z,1008.48
2017-03-31T03:18:40.857Z,1008.46
2017-03-31T03:19:40.847Z,1008.45
2017-03-31T03:20:40.831Z,1008.43
2017-03-31T03:21:40.814Z,1008.4
2017-03-31T03:22:40.801Z,1008.38
2017-03-31T03:23:40.788Z,1008.37
2017-03-31T03:24:40.794Z,1008.34
2017-03-31T03:25:40.760Z,1008.35
2017-03-31T03:26:40.749Z,1008.3
2017-03-31T03:27:40.733Z,1008.29
2017-03-31T03:28:40.718Z,1008.29
2017-03-31T03:29:40.706Z,1008.26
2017-03-31T03:30:40.690Z,1008.22
2017-03-31T03:31:40.680Z,1008.21
2017-03-31T03:32:40.870Z,1008.19
2017-03-31T03:33:40.651Z,1008.2
2017-03-31T03:34:40.637Z,1008.13
2017-03-31T03:35:40.625Z,1008.17
2017-03-31T03:36:40.610Z,1008.14
2017-03-31T03:37:40.595Z,1008.12
2017-03-31T03:38:40.583Z,1008.12
2017-03-31T03:39:40.567Z,1008.11
2017-03-31T03:40:40.558Z,1008.1
2017-03-31T03:41:40.540Z,1008.08
2017-03-31T03:42:40.528Z,1008.05
2017-03-31T03:43:40.512Z,1008.06
2017-03-31T03:44:40.500Z,1008.05
2017-03-31T03:45:40.486Z,1008.03
2017-03-31T03:46:40.472Z,1008.03
2017-03-31T03:47:40.460Z,1008.01
2017-03-31T03:48:40.445Z,1007.98
2017-03-31T03:49:40.431Z,1007.98
2017-03-31T03:50:40.417Z,1007.99
2017-03-31T03:51:40.402Z,1007.96
2017-03-31T03:52:40.388Z,1007.98
2017-03-31T03:53:40.376Z,1007.95
2017-03-31T03:54:40.360Z,1007.93
2017-03-31T03:55:40.348Z,1007.91
2017-03-31T03:56:40.335Z,1007.9
2017-03-31T03:57:40.319Z,1007.86
2017-03-31T03:58:40.309Z,1007.87
2017-03-31T03:59:40.343Z,1007.87
2017-03-31T04:00:40.287Z,1007.84
2017-03-31T04:01:40.265Z,1007.86
2017-03-31T04:02:40.253Z,1007.8
2017-03-31T04:03:40.240Z,1007.8
2017-03-31T04:04:40.226Z,1007.79
2017-03-31T04:05:40.209Z,1007.73
2017-03-31T04:06:40.199Z,1007.72
2017-03-31T04:07:40.183Z,1007.73
2017-03-31T04:08:40.167Z,1007.73
2017-03-31T04:09:40.154Z,1007.68
2017-03-31T04:10:40.141Z,1007.69
2017-03-31T04:11:40.128Z,1007.67
2017-03-31T04:12:40.112Z,1007.69
2017-03-31T04:13:40.098Z,1007.64
2017-03-31T04:14:40.086Z,1007.62
2017-03-31T04:15:40.072Z,1007.66
2017-03-31T04:16:40.057Z,1007.61
2017-03-31T04:17:40.043Z,1007.6
2017-03-31T04:18:40.030Z,1007.57
2017-03-31T04:19:40.017Z,1007.59
2017-03-31T04:20:40.002Z,1007.52
2017-03-31T04:21:39.988Z,1007.5
2017-03-31T04:22:39.974Z,1007.51
2017-03-31T04:23:39.959Z,1007.47
2017-03-31T04:24:39.948Z,1007.44
2017-03-31T04:25:39.933Z,1007.49
2017-03-31T04:26:39.917Z,1007.45
2017-03-31T04:27:39.903Z,1007.43
2017-03-31T04:28:39.889Z,1007.44
2017-03-31T04:29:39.877Z,1007.44
2017-03-31T04:30:39.861Z,1007.4
2017-03-31T04:31:39.847Z,1007.39
2017-03-31T04:32:39.833Z,1007.38
2017-03-31T04:33:39.820Z,1007.38
2017-03-31T04:34:39.805Z,1007.4
2017-03-31T04:35:39.790Z,1007.41
2017-03-31T04:36:39.778Z,1007.39
2017-03-31T04:37:39.763Z,1007.38
2017-03-31T04:38:39.748Z,1007.32
2017-03-31T04:39:39.735Z,1007.38
2017-03-31T04:40:39.923Z,1007.33
2017-03-31T04:41:39.705Z,1007.3
2017-03-31T04:42:39.692Z,1007.33
2017-03-31T04:43:39.680Z,1007.3
2017-03-31T04:44:39.666Z,1007.26
2017-03-31T04:45:39.649Z,1007.3
2017-03-31T04:46:39.637Z,1007.28
2017-03-31T04:47:39.623Z,1007.28
2017-03-31T04:48:39.610Z,1007.25
2017-03-31T04:49:39.593Z,1007.24
2017-03-31T04:50:39.579Z,1007.25
2017-03-31T04:51:39.564Z,1007.27
2017-03-31T04:52:39.551Z,1007.24
2017-03-31T04:53:39.536Z,1007.25
2017-03-31T04:54:39.521Z,1007.22
2017-03-31T04:55:39.509Z,1007.18
2017-03-31T04:56:39.495Z,1007.21
2017-03-31T04:57:39.480Z,1007.17
2017-03-31T04:58:39.465Z,1007.19
2017-03-31T04:59:39.452Z,1007.17
2017-03-31T05:00:39.437Z,1007.14
2017-03-31T05:01:39.422Z,1007.13
2017-03-31T05:02:39.407Z,1007.12
2017-03-31T05:03:39.393Z,1007.13
2017-03-31T05:04:39.379Z,1007.11
2017-03-31T05:05:39.365Z,1007.12
2017-03-31T05:06:39.349Z,1007.12
2017-03-31T05:07:39.365Z,1007.12
2017-03-31T05:08:39.321Z,1007.09
2017-03-31T05:09:39.308Z,1007.13
2017-03-31T05:10:39.293Z,1007.11
2017-03-31T05:11:39.278Z,1007.07
2017-03-31T05:12:39.467Z,1007.05
2017-03-31T05:13:39.252Z,1007.09
2017-03-31T05:14:39.235Z,1007.08
2017-03-31T05:15:39.219Z,1007.01
2017-03-31T05:16:39.209Z,1007.03
2017-03-31T05:17:39.192Z,1007.03
2017-03-31T05:18:39.177Z,1007.06
2017-03-31T05:19:39.166Z,1007.05
2017-03-31T05:20:39.154Z,1007.01
2017-03-31T05:21:39.135Z,1007.07
2017-03-31T05:22:39.121Z,1007.02
2017-03-31T05:23:39.107Z,1007.03
2017-03-31T05:24:39.092Z,1007
2017-03-31T05:25:39.077Z,1007.03
2017-03-31T05:26:39.064Z,1007.02
2017-03-31T05:27:39.050Z,1007
2017-03-31T05:28:39.036Z,1007.02
2017-03-31T05:29:39.020Z,1006.98
2017-03-31T05:30:39.008Z,1007.01
2017-03-31T05:31:38.993Z,1006.99
2017-03-31T05:32:38.980Z,1006.97
2017-03-31T05:33:38.968Z,1006.97
2017-03-31T05:34:38.953Z,1006.94
2017-03-31T05:35:38.937Z,1006.93
2017-03-31T05:36:38.923Z,1006.94
2017-03-31T05:37:38.911Z,1006.93
2017-03-31T05:38:38.896Z,1006.9
2017-03-31T05:39:38.881Z,1006.85
2017-03-31T05:40:38.866Z,1006.84
2017-03-31T05:41:38.857Z,1006.83
2017-03-31T05:42:38.839Z,1006.8
2017-03-31T05:43:38.824Z,1006.8
2017-03-31T05:44:38.809Z,1006.8
2017-03-31T05:45:38.797Z,1006.79
2017-03-31T05:46:38.782Z,1006.76
2017-03-31T05:47:38.768Z,1006.77
2017-03-31T05:48:38.753Z,1006.75
2017-03-31T05:49:38.741Z,1006.75
2017-03-31T05:50:38.737Z,1006.76
2017-03-31T05:51:38.712Z,1006.76
2017-03-31T05:52:38.700Z,1006.72
2017-03-31T05:53:38.684Z,1006.72
2017-03-31T05:54:38.670Z,1006.73
2017-03-31T05:55:38.656Z,1006.72
2017-03-31T05:56:38.643Z,1006.65
2017-03-31T05:57:38.631Z,1006.67
2017-03-31T05:58:38.616Z,1006.65
2017-03-31T05:59:38.602Z,1006.62
2017-03-31T06:00:38.588Z,1006.63
2017-03-31T06:01:38.579Z,1006.64
2017-03-31T06:02:38.561Z,1006.61
2017-03-31T06:03:38.548Z,1006.62
2017-03-31T06:04:38.534Z,1006.59
2017-03-31T06:05:38.518Z,1006.59
2017-03-31T06:06:38.506Z,1006.57
2017-03-31T06:07:38.494Z,1006.59
2017-03-31T06:08:38.479Z,1006.6
2017-03-31T06:09:38.466Z,1006.61
2017-03-31T06:10:38.459Z,1006.61
2017-03-31T06:11:38.442Z,1006.58
2017-03-31T06:12:38.426Z,1006.62
2017-03-31T06:13:38.413Z,1006.6
2017-03-31T06:14:38.400Z,1006.6
2017-03-31T06:15:38.385Z,1006.57
2017-03-31T06:16:38.375Z,1006.57
2017-03-31T06:17:38.358Z,1006.53
2017-03-31T06:18:38.344Z,1006.59
2017-03-31T06:19:38.331Z,1006.59
2017-03-31T06:20:38.319Z,1006.6
2017-03-31T06:21:38.305Z,1006.61
2017-03-31T06:22:38.292Z,1006.58
2017-03-31T06:23:38.280Z,1006.58
2017-03-31T06:24:38.265Z,1006.56
2017-03-31T06:25:38.253Z,1006.6
2017-03-31T06:26:38.292Z,1006.57
2017-03-31T06:27:38.228Z,1006.55
2017-03-31T06:28:38.213Z,1006.58
2017-03-31T06:29:38.202Z,1006.58
2017-03-31T06:30:38.187Z,1006.57
2017-03-31T06:31:38.184Z,1006.57
2017-03-31T06:32:38.173Z,1006.5
2017-03-31T06:33:38.149Z,1006.51
2017-03-31T06:34:38.137Z,1006.48
2017-03-31T06:35:38.125Z,1006.49
2017-03-31T06:36:38.113Z,1006.48
2017-03-31T06:37:38.109Z,1006.46
2017-03-31T06:38:38.086Z,1006.5
2017-03-31T06:39:38.074Z,1006.46
2017-03-31T06:40:38.265Z,1006.46
2017-03-31T06:41:38.052Z,1006.48
2017-03-31T06:42:38.036Z,1006.45
2017-03-31T06:43:38.024Z,1006.46
2017-03-31T06:44:38.014Z,1006.42
2017-03-31T06:45:38.002Z,1006.38
2017-03-31T06:46:37.988Z,1006.4
2017-03-31T06:47:37.977Z,1006.4
2017-03-31T06:48:37.965Z,1006.44
2017-03-31T06:49:37.979Z,1006.45
2017-03-31T06:50:37.941Z,1006.45
2017-03-31T06:51:37.928Z,1006.42
2017-03-31T06:52:37.916Z,1006.41
2017-03-31T06:53:37.904Z,1006.4
2017-03-31T06:54:37.892Z,1006.43
2017-03-31T06:55:37.880Z,1006.38
2017-03-31T06:56:37.869Z,1006.37
2017-03-31T06:57:37.859Z,1006.42
2017-03-31T06:58:37.844Z,1006.41
2017-03-31T06:59:37.834Z,1006.41
2017-03-31T07:00:37.820Z,1006.37
2017-03-31T07:01:37.809Z,1006.38
2017-03-31T07:02:37.797Z,1006.36
2017-03-31T07:03:37.838Z,1006.31
2017-03-31T07:04:37.776Z,1006.29
2017-03-31T07:05:37.764Z,1006.28
2017-03-31T07:06:37.751Z,1006.26
2017-03-31T07:07:37.740Z,1006.25
2017-03-31T07:08:37.729Z,1006.23
2017-03-31T07:09:37.719Z,1006.23
2017-03-31T07:10:37.708Z,1006.26
2017-03-31T07:11:37.696Z,1006.25
2017-03-31T07:12:37.685Z,1006.22
2017-03-31T07:13:37.673Z,1006.27
2017-03-31T07:14:37.665Z,1006.27
2017-03-31T07:15:37.652Z,1006.23
2017-03-31T07:16:37.644Z,1006.27
2017-03-31T07:17:37.630Z,1006.22
2017-03-31T07:18:37.620Z,1006.2
2017-03-31T07:19:37.609Z,1006.2
2017-03-31T07:20:37.596Z,1006.17
2017-03-31T07:21:37.589Z,1006.16
2017-03-31T07:22:37.574Z,1006.14
2017-03-31T07:23:37.565Z,1006.15
2017-03-31T07:24:37.554Z,1006.15
2017-03-31T07:25:37.543Z,1006.08
2017-03-31T07:26:37.533Z,1006.14
2017-03-31T07:27:37.521Z,1006.09
2017-03-31T07:28:37.513Z,1006.12
2017-03-31T07:29:37.500Z,1006.1
2017-03-31T07:30:37.490Z,1006.08
2017-03-31T07:31:37.480Z,1006.07
2017-03-31T07:32:37.471Z,1006.08
2017-03-31T07:33:37.460Z,1006.07
2017-03-31T07:34:37.453Z,1006.1
2017-03-31T07:35:37.438Z,1006.1
2017-03-31T07:36:37.428Z,1006.07
2017-03-31T07:37:37.417Z,1006.06
2017-03-31T07:38:37.407Z,1006.05
2017-03-31T07:39:37.398Z,1006.05
2017-03-31T07:40:37.385Z,1006.04
2017-03-31T07:41:37.377Z,1006.08
2017-03-31T07:42:37.365Z,1006.01
2017-03-31T07:43:37.356Z,1006
2017-03-31T07:44:37.344Z,1005.97
2017-03-31T07:45:37.336Z,1005.99
2017-03-31T07:46:37.328Z,1005.97
2017-03-31T07:47:37.316Z,1005.95
2017-03-31T07:48:37.309Z,1005.97
2017-03-31T07:49:37.296Z,1005.94
2017-03-31T07:50:37.288Z,1005.95
2017-03-31T07:51:37.277Z,1005.9
2017-03-31T07:52:37.267Z,1005.92
2017-03-31T07:53:37.258Z,1005.9
2017-03-31T07:54:37.249Z,1005.92
2017-03-31T07:55:37.236Z,1005.92
2017-03-31T07:56:37.233Z,1005.91
2017-03-31T07:57:37.219Z,1005.88
2017-03-31T07:58:37.211Z,1005.89
2017-03-31T07:59:37.200Z,1005.88
2017-03-31T08:00:37.190Z,1005.9
2017-03-31T08:01:37.181Z,1005.92
2017-03-31T08:02:37.173Z,1005.93
2017-03-31T08:03:37.164Z,1005.96
2017-03-31T08:04:37.154Z,1005.95
2017-03-31T08:05:37.144Z,1005.98
2017-03-31T08:06:37.136Z,1005.96
2017-03-31T08:07:37.128Z,1006
2017-03-31T08:08:37.119Z,1006
2017-03-31T08:09:37.111Z,1006.01
2017-03-31T08:10:37.098Z,1006.02
2017-03-31T08:11:37.092Z,1006.01
2017-03-31T08:12:37.081Z,1006.04
2017-03-31T08:13:37.072Z,1006.04
2017-03-31T08:14:37.068Z,1006.05
2017-03-31T08:15:37.055Z,1006.06
2017-03-31T08:16:37.048Z,1006.19
2017-03-31T08:17:37.039Z,1006.18
2017-03-31T08:18:37.032Z,1006.16
2017-03-31T08:19:37.025Z,1006.13
2017-03-31T08:20:37.014Z,1006.1
2017-03-31T08:21:37.007Z,1006.15
2017-03-31T08:22:37.000Z,1006.17
2017-03-31T08:23:36.993Z,1006.1
2017-03-31T08:24:36.984Z,1006.11
2017-03-31T08:25:36.976Z,1006.13
2017-03-31T08:26:36.971Z,1006.06
2017-03-31T08:27:36.961Z,1006.08
2017-03-31T08:28:36.953Z,1006.1
2017-03-31T08:29:36.946Z,1006.1
2017-03-31T08:30:36.938Z,1006.18
2017-03-31T08:31:36.932Z,1006.14
2017-03-31T08:32:36.923Z,1006.12
2017-03-31T08:33:36.916Z,1006.14
2017-03-31T08:34:36.911Z,1006.17
2017-03-31T08:35:36.906Z,1006.2
2017-03-31T08:36:36.897Z,1006.15
2017-03-31T08:37:36.893Z,1006.14
2017-03-31T08:38:36.883Z,1006.14
2017-03-31T08:39:36.895Z,1006.11
2017-03-31T08:40:36.869Z,1006.1
2017-03-31T08:41:36.867Z,1006.13
2017-03-31T08:42:36.857Z,1006.13
2017-03-31T08:43:36.855Z,1006.11
2017-03-31T08:44:36.847Z,1006.04
2017-03-31T08:45:36.837Z,1005.99
2017-03-31T08:46:36.829Z,1005.99
2017-03-31T08:47:36.824Z,1005.98
2017-03-31T08:48:36.820Z,1006.07
2017-03-31T08:49:36.829Z,1006.03
2017-03-31T08:50:36.804Z,1006.05
2017-03-31T08:51:36.798Z,1006.11
2017-03-31T08:52:36.795Z,1006.07
2017-03-31T08:53:36.787Z,1006.05
2017-03-31T08:54:36.978Z,1006.09
2017-03-31T08:55:36.772Z,1006.05
2017-03-31T08:56:36.766Z,1006.05
2017-03-31T08:57:36.757Z,1006.09
2017-03-31T08:58:36.752Z,1006.07
2017-03-31T08:59:36.746Z,1006.09
2017-03-31T09:00:36.736Z,1006.14
2017-03-31T09:01:36.743Z,1006.13
2017-03-31T09:02:36.723Z,1006.13
2017-03-31T09:03:36.718Z,1006.13
2017-03-31T09:04:36.713Z,1006.12
2017-03-31T09:05:36.706Z,1006.08
2017-03-31T09:06:36.697Z,1006.07
2017-03-31T09:07:36.692Z,1006.07
2017-03-31T09:08:36.683Z,1006.05
2017-03-31T09:09:36.678Z,1006.06
2017-03-31T09:10:36.687Z,1006.08
2017-03-31T09:11:36.665Z,1006.09
2017-03-31T09:12:36.658Z,1006.03
2017-03-31T09:13:36.652Z,1006.03
2017-03-31T09:14:36.647Z,1005.99
2017-03-31T09:15:36.642Z,1006.05
2017-03-31T09:16:36.647Z,1005.99
2017-03-31T09:17:36.630Z,1006.05
2017-03-31T09:18:36.624Z,1006.1
2017-03-31T09:19:36.617Z,1006.1
2017-03-31T09:20:36.613Z,1006.08
2017-03-31T09:21:36.607Z,1006.07
2017-03-31T09:22:36.602Z,1006.04
2017-03-31T09:23:36.595Z,1006
2017-03-31T09:24:36.592Z,1006.05
2017-03-31T09:25:36.584Z,1006.1
2017-03-31T09:26:36.578Z,1006.02
2017-03-31T09:27:36.572Z,1005.96
2017-03-31T09:28:36.567Z,1005.99
2017-03-31T09:29:36.563Z,1006.01
2017-03-31T09:30:36.556Z,1006.02
2017-03-31T09:31:36.551Z,1005.98
2017-03-31T09:32:36.546Z,1005.94
2017-03-31T09:33:36.539Z,1005.92
2017-03-31T09:34:36.534Z,1005.93
2017-03-31T09:35:36.528Z,1005.89
2017-03-31T09:36:36.523Z,1005.95
2017-03-31T09:37:36.522Z,1005.91
2017-03-31T09:38:36.513Z,1005.91
2017-03-31T09:39:36.510Z,1005.95
2017-03-31T09:40:36.503Z,1005.93
2017-03-31T09:41:36.497Z,1005.9
2017-03-31T09:42:36.496Z,1005.82
2017-03-31T09:43:36.489Z,1005.8
2017-03-31T09:44:36.482Z,1005.81
2017-03-31T09:45:36.477Z,1005.79
2017-03-31T09:46:36.472Z,1005.79
2017-03-31T09:47:36.471Z,1005.77
2017-03-31T09:48:36.463Z,1005.8
2017-03-31T09:49:36.459Z,1005.82
2017-03-31T09:50:36.452Z,1005.79
2017-03-31T09:51:36.452Z,1005.81
2017-03-31T09:52:36.442Z,1005.79
2017-03-31T09:53:36.438Z,1005.85
2017-03-31T09:54:36.433Z,1005.83
2017-03-31T09:55:36.430Z,1005.81
2017-03-31T09:56:36.424Z,1005.8
2017-03-31T09:57:36.419Z,1005.8
2017-03-31T09:58:36.416Z,1005.78
2017-03-31T09:59:36.410Z,1005.72
2017-03-31T10:00:36.407Z,1005.72
2017-03-31T10:01:36.400Z,1005.73
2017-03-31T10:02:36.402Z,1005.72
2017-03-31T10:03:36.392Z,1005.67
2017-03-31T10:04:36.388Z,1005.74
2017-03-31T10:05:36.386Z,1005.73
2017-03-31T10:06:36.380Z,1005.66
2017-03-31T10:07:36.380Z,1005.7
2017-03-31T10:08:36.370Z,1005.67
2017-03-31T10:09:36.365Z,1005.66
2017-03-31T10:10:36.362Z,1005.65
2017-03-31T10:11:36.357Z,1005.7
2017-03-31T10:12:36.358Z,1005.67
2017-03-31T10:13:36.346Z,1005.67
2017-03-31T10:14:36.341Z,1005.65
2017-03-31T10:15:36.337Z,1005.7
2017-03-31T10:16:36.332Z,1005.69
2017-03-31T10:17:36.328Z,1005.69
2017-03-31T10:18:36.323Z,1005.65
2017-03-31T10:19:36.320Z,1005.66
2017-03-31T10:20:36.315Z,1005.65
2017-03-31T10:21:36.360Z,1005.6
2017-03-31T10:22:36.306Z,1005.56
2017-03-31T10:23:36.301Z,1005.59
2017-03-31T10:24:36.299Z,1005.59
2017-03-31T10:25:36.291Z,1005.63
2017-03-31T10:26:36.286Z,1005.62
2017-03-31T10:27:36.282Z,1005.58
2017-03-31T10:28:36.279Z,1005.57
2017-03-31T10:29:36.272Z,1005.63
2017-03-31T10:30:36.269Z,1005.58
2017-03-31T10:31:36.264Z,1005.58
2017-03-31T10:32:36.258Z,1005.58
2017-03-31T10:33:36.254Z,1005.56
2017-03-31T10:34:36.250Z,1005.54
2017-03-31T10:35:36.249Z,1005.48
2017-03-31T10:36:36.241Z,1005.52
2017-03-31T10:37:36.238Z,1005.48
2017-03-31T10:38:36.235Z,1005.47
2017-03-31T10:39:36.228Z,1005.48
2017-03-31T10:40:36.275Z,1005.44
2017-03-31T10:41:36.422Z,1005.46
2017-03-31T10:42:36.215Z,1005.41
2017-03-31T10:43:36.210Z,1005.4
2017-03-31T10:44:36.207Z,1005.41
2017-03-31T10:45:36.203Z,1005.39
2017-03-31T10:46:36.203Z,1005.35
2017-03-31T10:47:36.194Z,1005.35
2017-03-31T10:48:36.190Z,1005.32
2017-03-31T10:49:36.184Z,1005.32
2017-03-31T10:50:36.181Z,1005.31
2017-03-31T10:51:36.175Z,1005.31
2017-03-31T10:52:36.170Z,1005.28
2017-03-31T10:53:36.167Z,1005.28
2017-03-31T10:54:36.161Z,1005.34
2017-03-31T10:55:36.156Z,1005.28
2017-03-31T10:56:36.154Z,1005.27
2017-03-31T10:57:36.148Z,1005.24
2017-03-31T10:58:36.143Z,1005.21
2017-03-31T10:59:36.140Z,1005.23
2017-03-31T11:00:36.135Z,1005.17
2017-03-31T11:01:36.134Z,1005.25
2017-03-31T11:02:36.126Z,1005.14
2017-03-31T11:03:36.129Z,1005.08
2017-03-31T11:04:36.120Z,1005.13
2017-03-31T11:05:36.112Z,1005.08
2017-03-31T11:06:36.113Z,1005.13
2017-03-31T11:07:36.108Z,1005.13
2017-03-31T11:08:36.101Z,1005.15
2017-03-31T11:09:36.102Z,1005.16
2017-03-31T11:10:36.092Z,1005.2
2017-03-31T11:11:36.089Z,1005.19
2017-03-31T11:12:36.084Z,1005.19
2017-03-31T11:13:36.080Z,1005.2
2017-03-31T11:14:36.077Z,1005.12
2017-03-31T11:15:36.075Z,1005.13
2017-03-31T11:16:36.068Z,1005.08
2017-03-31T11:17:36.065Z,1005.11
2017-03-31T11:18:36.060Z,1005.13
2017-03-31T11:19:36.056Z,1005.17
2017-03-31T11:20:36.051Z,1005.18
2017-03-31T11:21:36.048Z,1005.19
2017-03-31T11:22:36.045Z,1005.17
2017-03-31T11:23:36.038Z,1005.14
2017-03-31T11:24:36.036Z,1005.15
2017-03-31T11:25:36.032Z,1005.11
2017-03-31T11:26:36.028Z,1005.06
2017-03-31T11:27:36.024Z,1005.15
2017-03-31T11:28:36.021Z,1005.12
2017-03-31T11:29:36.017Z,1005.07
2017-03-31T11:30:36.014Z,1005.06
2017-03-31T11:31:36.011Z,1005.08
2017-03-31T11:32:36.009Z,1005.07
2017-03-31T11:33:36.008Z,1005.08
2017-03-31T11:34:36.006Z,1005.12
2017-03-31T11:35:36.054Z,1005.06
2017-03-31T11:36:36.008Z,1005.05
2017-03-31T11:37:36.003Z,1005.05
2017-03-31T11:38:36.001Z,1005.02
2017-03-31T11:39:36.000Z,1004.99
2017-03-31T11:40:36.001Z,1004.98
2017-03-31T11:41:35.999Z,1005.01
2017-03-31T11:42:36.000Z,1004.97
2017-03-31T11:43:35.999Z,1004.94
2017-03-31T11:44:36.005Z,1004.95
2017-03-31T11:45:35.998Z,1004.94
2017-03-31T11:46:35.999Z,1004.93
2017-03-31T11:47:35.997Z,1004.9
2017-03-31T11:48:35.999Z,1004.92
2017-03-31T11:49:35.998Z,1004.83
2017-03-31T11:50:35.997Z,1004.86
2017-03-31T11:51:36.051Z,1004.82
2017-03-31T11:52:35.999Z,1004.87
2017-03-31T11:53:36.000Z,1004.85
2017-03-31T11:54:36.003Z,1004.79
2017-03-31T11:55:36.001Z,1004.84
2017-03-31T11:56:36.001Z,1004.88
2017-03-31T11:57:36.001Z,1004.85
2017-03-31T11:58:36.003Z,1004.86
2017-03-31T11:59:36.003Z,1004.84
2017-03-31T12:00:36.003Z,1004.9
2017-03-31T12:01:36.003Z,1004.89
2017-03-31T12:02:36.003Z,1004.82
2017-03-31T12:03:36.002Z,1004.85
2017-03-31T12:04:36.004Z,1004.84
2017-03-31T12:05:36.002Z,1004.87
2017-03-31T12:06:36.002Z,1004.81
2017-03-31T12:07:36.002Z,1004.82
2017-03-31T12:08:36.002Z,1004.83